Time;durP1;ratioP1;P1;durP2;ratioP2;P2;SDS_P1;SDS_P2;PMS_P1;PMS_P2;Temp;Humidity;BMP_temperature;BMP_pressure;BME280_temperature;BME280_humidity;BME280_pressure;Samples;Min_cycle;Max_cycle;Signal;HPM_P1;HPM_P2
2021/12/09 00:01:43;;;;;;;46.35;26.50;;;-1.60;99.90;;;;;;5060682;28;20220;-50
2021/12/09 00:04:14;;;;;;;39.17;23.23;;;-1.60;99.90;;;;;;5060623;28;20241;-51
2021/12/09 00:06:43;;;;;;;39.28;23.13;;;-1.60;99.90;;;;;;5061228;28;20195;-52
2021/12/09 00:09:18;;;;;;;52.03;26.73;;;-1.50;99.90;;;;;;5060877;28;20204;-54
2021/12/09 00:11:47;;;;;;;37.97;23.60;;;-1.60;99.90;;;;;;5060670;28;20226;-51
2021/12/09 00:14:24;;;;;;;39.05;23.55;;;-1.50;99.90;;;;;;5061159;28;20196;-54
2021/12/09 00:16:53;;;;;;;41.30;24.48;;;-1.50;99.90;;;;;;5060802;28;20195;-54
2021/12/09 00:19:20;;;;;;;36.35;23.08;;;-1.60;99.90;;;;;;5060563;28;20606;-50
2021/12/09 00:21:47;;;;;;;43.13;25.85;;;-1.50;99.90;;;;;;5059841;28;20285;-54
2021/12/09 00:24:15;;;;;;;41.97;25.33;;;-1.50;99.90;;;;;;5060610;28;20215;-54
2021/12/09 00:26:44;;;;;;;45.65;24.20;;;-1.60;99.90;;;;;;5060347;28;20195;-54
2021/12/09 00:29:13;;;;;;;44.33;25.08;;;-1.60;99.90;;;;;;5060642;28;20200;-50
2021/12/09 00:31:41;;;;;;;40.15;23.02;;;-1.60;99.90;;;;;;5060378;28;20569;-55
2021/12/09 00:34:08;;;;;;;41.90;25.20;;;-1.60;99.90;;;;;;5060286;28;20205;-49
2021/12/09 00:36:43;;;;;;;39.50;25.15;;;-1.70;99.90;;;;;;5060510;28;20304;-50
2021/12/09 00:39:11;;;;;;;45.42;24.05;;;-1.70;99.90;;;;;;5059713;28;20192;-50
2021/12/09 00:41:39;;;;;;;53.60;24.90;;;-1.60;99.90;;;;;;5061223;28;20254;-52
2021/12/09 00:44:07;;;;;;;42.85;25.30;;;-1.60;99.90;;;;;;5062074;28;20195;-51
2021/12/09 00:46:36;;;;;;;44.50;26.98;;;-1.70;99.90;;;;;;5060560;28;20462;-52
2021/12/09 00:49:04;;;;;;;50.38;27.48;;;-1.70;99.90;;;;;;5059703;28;20195;-54
2021/12/09 00:51:31;;;;;;;49.55;27.30;;;-1.70;99.90;;;;;;5060247;28;20215;-52
2021/12/09 00:53:58;;;;;;;40.15;21.05;;;-1.70;99.90;;;;;;5060634;28;20199;-49
2021/12/09 00:56:26;;;;;;;37.08;21.88;;;-1.70;99.90;;;;;;5060196;28;20425;-54
2021/12/09 00:58:55;;;;;;;38.53;23.73;;;-1.80;99.90;;;;;;5060869;28;20222;-51
2021/12/09 01:01:24;;;;;;;43.38;25.42;;;-1.80;99.90;;;;;;5059655;28;20224;-54
2021/12/09 01:03:51;;;;;;;39.80;22.98;;;-1.80;99.90;;;;;;5060280;28;20514;-50
2021/12/09 01:06:19;;;;;;;49.28;24.98;;;-1.70;99.90;;;;;;5059669;28;20210;-51
2021/12/09 01:08:46;;;;;;;35.03;21.58;;;-1.70;99.90;;;;;;5059830;28;20234;-54
2021/12/09 01:11:14;;;;;;;41.15;20.58;;;-1.70;99.90;;;;;;5059944;28;20226;-53
2021/12/09 01:13:42;;;;;;;44.15;22.20;;;-1.70;99.90;;;;;;5060146;28;20440;-52
2021/12/09 01:16:11;;;;;;;38.10;22.05;;;-1.80;99.90;;;;;;5060150;28;20214;-54
2021/12/09 01:18:40;;;;;;;40.42;23.13;;;-1.70;99.90;;;;;;5059821;28;20199;-50
2021/12/09 01:21:09;;;;;;;51.15;23.90;;;-1.70;99.90;;;;;;5060174;28;20215;-50
2021/12/09 01:23:37;;;;;;;34.55;22.40;;;-1.50;99.90;;;;;;5059737;28;20195;-50
2021/12/09 01:26:06;;;;;;;38.20;19.67;;;-1.60;99.90;;;;;;5060156;28;20195;-53
2021/12/09 01:28:59;;;;;;;36.10;21.35;;;-1.60;99.90;;;;;;5059449;28;20291;-50
2021/12/09 01:31:31;;;;;;;44.17;22.45;;;-1.70;99.90;;;;;;5060273;28;20236;-51
2021/12/09 01:34:02;;;;;;;40.17;22.60;;;-1.70;99.90;;;;;;5062377;28;20257;-55
2021/12/09 01:36:31;;;;;;;45.67;26.45;;;-1.70;99.90;;;;;;5069312;28;20199;-53
2021/12/09 01:39:01;;;;;;;37.10;21.90;;;-1.70;99.90;;;;;;5051385;28;20297;-57
2021/12/09 01:41:28;;;;;;;41.85;25.60;;;-1.70;99.90;;;;;;5078577;28;20246;-57
2021/12/09 01:43:56;;;;;;;42.50;24.02;;;-1.50;99.90;;;;;;5088907;28;20195;-52
2021/12/09 01:46:23;;;;;;;36.90;20.50;;;-1.50;99.90;;;;;;5088476;28;20236;-54
2021/12/09 01:48:51;;;;;;;48.70;26.63;;;-1.60;99.90;;;;;;5089630;28;20233;-54
2021/12/09 01:51:20;;;;;;;47.40;24.88;;;-1.60;99.90;;;;;;5087742;28;20256;-55
2021/12/09 01:53:47;;;;;;;50.17;27.85;;;-1.60;99.90;;;;;;5085465;28;20428;-56
2021/12/09 01:56:21;;;;;;;39.22;23.40;;;-1.60;99.90;;;;;;5084879;28;20284;-56
2021/12/09 01:58:53;;;;;;;38.35;21.33;;;-1.50;99.90;;;;;;5084586;28;20198;-52
2021/12/09 02:01:21;;;;;;;43.97;22.95;;;-1.60;99.90;;;;;;5084388;28;20268;-54
2021/12/09 02:03:49;;;;;;;42.35;22.10;;;-1.60;99.90;;;;;;5084059;28;20199;-51
2021/12/09 02:06:17;;;;;;;42.08;23.60;;;-1.60;99.90;;;;;;5083799;28;20430;-56
2021/12/09 02:08:46;;;;;;;38.88;22.40;;;-1.60;99.90;;;;;;5083326;28;20498;-53
2021/12/09 02:11:13;;;;;;;39.53;22.52;;;-1.70;99.90;;;;;;5084784;28;20233;-56
2021/12/09 02:13:41;;;;;;;43.55;21.52;;;-1.70;99.90;;;;;;5084704;28;20353;-55
2021/12/09 02:16:09;;;;;;;46.05;24.65;;;-1.60;99.90;;;;;;5084352;28;20199;-55
2021/12/09 02:18:37;;;;;;;47.95;26.13;;;-1.60;99.90;;;;;;5083501;28;20203;-55
2021/12/09 02:21:18;;;;;;;46.30;21.63;;;-1.60;99.90;;;;;;5084378;28;20234;-53
2021/12/09 02:23:48;;;;;;;42.03;25.52;;;-1.50;99.90;;;;;;5085435;28;20241;-53
2021/12/09 02:26:19;;;;;;;40.70;23.73;;;-1.60;99.90;;;;;;5086333;28;20538;-50
2021/12/09 02:28:48;;;;;;;48.00;24.05;;;-1.60;99.90;;;;;;5085074;28;20195;-52
2021/12/09 02:31:16;;;;;;;43.92;25.88;;;-1.70;99.90;;;;;;5083318;28;20553;-54
2021/12/09 02:33:43;;;;;;;51.65;23.83;;;-1.60;99.90;;;;;;5083898;28;20432;-53
2021/12/09 02:36:10;;;;;;;43.05;24.40;;;-1.50;99.90;;;;;;5082819;28;20332;-54
2021/12/09 02:38:43;;;;;;;42.28;25.48;;;-1.50;99.90;;;;;;5082994;28;20377;-51
2021/12/09 02:41:18;;;;;;;47.83;28.02;;;-1.50;99.90;;;;;;5082851;28;20227;-54
2021/12/09 02:43:54;;;;;;;49.08;27.90;;;-1.50;99.90;;;;;;5082854;28;20514;-51
2021/12/09 02:46:24;;;;;;;47.63;27.15;;;-1.40;99.90;;;;;;5081936;28;20195;-50
2021/12/09 02:48:51;;;;;;;55.33;32.25;;;-1.40;99.90;;;;;;5082463;28;20445;-52
2021/12/09 02:51:18;;;;;;;52.75;27.50;;;-1.40;99.90;;;;;;5082327;28;20574;-51
2021/12/09 02:53:46;;;;;;;54.30;27.50;;;-1.40;99.90;;;;;;5082361;28;20464;-55
2021/12/09 02:56:13;;;;;;;46.10;28.00;;;-1.40;99.90;;;;;;5082599;28;20236;-54
2021/12/09 02:58:41;;;;;;;54.70;29.23;;;-1.40;99.90;;;;;;5081847;28;20191;-51
2021/12/09 03:01:14;;;;;;;58.67;28.90;;;-1.40;99.90;;;;;;5082181;28;20269;-53
2021/12/09 03:03:50;;;;;;;55.83;29.42;;;-1.40;99.90;;;;;;5082564;28;20202;-49
2021/12/09 03:06:27;;;;;;;59.13;30.75;;;-1.50;99.90;;;;;;5082007;28;20363;-54
2021/12/09 03:08:55;;;;;;;52.42;27.38;;;-1.40;99.90;;;;;;5082087;28;20195;-51
2021/12/09 03:11:22;;;;;;;50.90;28.73;;;-1.40;99.90;;;;;;5081690;28;20272;-52
2021/12/09 03:13:52;;;;;;;40.35;25.88;;;-1.40;99.90;;;;;;5082507;28;20570;-50
2021/12/09 03:16:22;;;;;;;39.10;25.70;;;-1.40;99.90;;;;;;5081698;28;20214;-53
2021/12/09 03:18:59;;;;;;;41.67;23.08;;;-1.40;99.90;;;;;;5081756;28;20202;-51
2021/12/09 03:21:32;;;;;;;46.90;23.75;;;-1.50;99.90;;;;;;5081166;28;20234;-52
2021/12/09 03:24:01;;;;;;;47.25;27.88;;;-1.50;99.90;;;;;;5082190;28;20256;-49
2021/12/09 03:26:34;;;;;;;46.90;26.05;;;-1.50;99.90;;;;;;5081915;28;20199;-51
2021/12/09 03:29:06;;;;;;;45.72;26.05;;;-1.50;99.90;;;;;;5081612;28;20210;-53
2021/12/09 03:31:35;;;;;;;42.47;25.05;;;-1.60;99.90;;;;;;5081767;28;20320;-49
2021/12/09 03:34:04;;;;;;;51.08;27.60;;;-1.60;99.90;;;;;;5081497;28;20191;-51
2021/12/09 03:36:31;;;;;;;43.90;26.50;;;-1.60;99.90;;;;;;5081610;28;20211;-53
2021/12/09 03:39:03;;;;;;;41.80;25.38;;;-1.60;99.90;;;;;;5081043;28;20501;-52
2021/12/09 03:41:30;;;;;;;38.70;24.17;;;-1.60;99.90;;;;;;5081706;28;20230;-50
2021/12/09 03:43:58;;;;;;;40.95;22.83;;;-1.60;99.90;;;;;;5081873;28;20528;-55
2021/12/09 03:46:26;;;;;;;45.88;25.75;;;-1.70;99.90;;;;;;5082338;28;20206;-55
2021/12/09 03:48:53;;;;;;;47.53;30.02;;;-1.60;99.90;;;;;;5082516;28;20271;-52
2021/12/09 03:51:21;;;;;;;45.40;26.48;;;-1.60;99.90;;;;;;5063716;28;20272;-52
2021/12/09 03:53:48;;;;;;;44.08;24.38;;;-1.70;99.90;;;;;;5081831;28;20229;-50
2021/12/09 03:56:16;;;;;;;49.90;24.85;;;-1.60;99.90;;;;;;5080998;28;20615;-54
2021/12/09 03:58:43;;;;;;;45.13;24.38;;;-1.50;99.90;;;;;;5081463;28;20245;-54
2021/12/09 04:01:11;;;;;;;43.35;25.63;;;-1.40;99.90;;;;;;5082583;28;20223;-53
2021/12/09 04:03:38;;;;;;;51.13;26.55;;;-1.40;99.90;;;;;;5083700;28;20195;-51
2021/12/09 04:06:05;;;;;;;46.63;25.17;;;-1.40;99.90;;;;;;5083988;28;20213;-53
2021/12/09 04:08:33;;;;;;;47.13;26.45;;;-1.40;99.90;;;;;;5081723;28;20195;-53
2021/12/09 04:11:01;;;;;;;39.33;23.08;;;-1.40;99.90;;;;;;5081918;28;20237;-54
2021/12/09 04:13:28;;;;;;;42.80;24.30;;;-1.30;99.90;;;;;;5083320;28;20198;-55
2021/12/09 04:15:57;;;;;;;40.70;23.80;;;-1.20;99.90;;;;;;5083400;28;20198;-54
2021/12/09 04:18:24;;;;;;;40.55;25.98;;;-1.20;99.90;;;;;;5082196;28;20198;-56
2021/12/09 04:20:51;;;;;;;44.05;26.63;;;-1.30;99.90;;;;;;5086173;28;20218;-54
2021/12/09 04:23:18;;;;;;;48.58;24.55;;;-1.40;99.90;;;;;;5084842;28;20194;-55
2021/12/09 04:25:46;;;;;;;44.40;22.15;;;-1.40;99.90;;;;;;5084437;28;20545;-52
2021/12/09 04:28:13;;;;;;;41.20;22.73;;;-1.40;99.90;;;;;;5081257;28;20233;-52
2021/12/09 04:30:40;;;;;;;36.53;23.42;;;-1.40;99.90;;;;;;5080469;28;20264;-51
2021/12/09 04:33:08;;;;;;;39.58;23.63;;;-1.40;99.90;;;;;;5081283;28;20509;-53
2021/12/09 04:35:36;;;;;;;42.35;23.27;;;-1.50;99.90;;;;;;5081519;28;20528;-51
2021/12/09 04:38:03;;;;;;;46.22;22.90;;;-1.50;99.90;;;;;;5080553;28;20645;-48
2021/12/09 04:40:31;;;;;;;41.25;24.17;;;-1.50;99.90;;;;;;5079577;28;20219;-51
2021/12/09 04:43:00;;;;;;;42.80;23.55;;;-1.50;99.90;;;;;;5080594;28;20252;-53
2021/12/09 04:45:28;;;;;;;43.42;23.75;;;-1.50;99.90;;;;;;5080708;28;20228;-51
2021/12/09 04:47:57;;;;;;;41.80;24.10;;;-1.50;99.90;;;;;;5080564;28;20241;-49
2021/12/09 04:50:25;;;;;;;42.67;26.65;;;-1.50;99.90;;;;;;5080306;28;20199;-49
2021/12/09 04:52:53;;;;;;;45.53;25.08;;;-1.40;99.90;;;;;;5080057;28;20222;-54
2021/12/09 04:55:20;;;;;;;37.40;23.90;;;-1.40;99.90;;;;;;5080039;28;20252;-50
2021/12/09 04:57:47;;;;;;;39.65;23.45;;;-1.50;99.90;;;;;;5079785;28;20199;-52
2021/12/09 05:00:19;;;;;;;45.42;27.13;;;-1.60;99.90;;;;;;5079330;28;20244;-55
2021/12/09 05:05:17;;;;;;;39.92;25.17;;;-1.40;99.90;;;;;;5078061;28;20207;-54
2021/12/09 05:07:44;;;;;;;44.33;26.00;;;-1.30;99.90;;;;;;5077207;28;20230;-53
2021/12/09 05:10:12;;;;;;;43.72;23.60;;;-1.30;99.90;;;;;;5074202;28;20502;-52
2021/12/09 05:12:40;;;;;;;42.55;26.15;;;-1.40;99.90;;;;;;5072160;28;20417;-52
2021/12/09 05:15:08;;;;;;;42.72;25.35;;;-1.30;99.90;;;;;;5062408;28;20195;-51
2021/12/09 05:17:36;;;;;;;46.28;26.15;;;-1.30;99.90;;;;;;5080230;28;20198;-54
2021/12/09 05:20:05;;;;;;;41.90;26.67;;;-1.20;99.90;;;;;;5083209;28;20222;-53
2021/12/09 05:22:32;;;;;;;40.40;23.05;;;-1.20;99.90;;;;;;5085409;28;20360;-49
2021/12/09 05:24:59;;;;;;;43.40;26.20;;;-1.30;99.90;;;;;;5081227;28;20233;-51
2021/12/09 05:27:29;;;;;;;45.00;25.65;;;-1.30;99.90;;;;;;5067700;28;20197;-51
2021/12/09 05:30:08;;;;;;;40.03;23.70;;;-1.30;99.90;;;;;;5064885;28;20425;-51
2021/12/09 05:32:35;;;;;;;48.08;26.98;;;-1.30;99.90;;;;;;5064015;28;20242;-53
2021/12/09 05:35:05;;;;;;;42.60;26.63;;;-1.30;99.90;;;;;;5061523;28;20204;-51
2021/12/09 05:37:33;;;;;;;45.88;27.17;;;-1.30;99.90;;;;;;5070071;28;20245;-51
2021/12/09 05:40:00;;;;;;;46.00;24.73;;;-1.30;99.90;;;;;;5073108;28;20206;-51
2021/12/09 05:42:30;;;;;;;44.17;25.48;;;-1.20;99.90;;;;;;5079082;28;20227;-54
2021/12/09 05:44:59;;;;;;;42.42;26.15;;;-1.30;99.90;;;;;;5080072;28;20478;-53
2021/12/09 05:47:28;;;;;;;50.65;28.17;;;-1.30;99.90;;;;;;5081717;28;20383;-51
2021/12/09 05:49:56;;;;;;;47.15;26.65;;;-1.20;99.90;;;;;;5059629;28;20430;-52
2021/12/09 05:52:23;;;;;;;48.47;28.05;;;-1.20;99.90;;;;;;5072256;28;20533;-53
2021/12/09 05:54:50;;;;;;;49.42;28.20;;;-1.20;99.90;;;;;;5065514;28;20502;-49
2021/12/09 05:57:18;;;;;;;43.90;26.52;;;-1.20;99.90;;;;;;5071111;28;20378;-49
2021/12/09 05:59:46;;;;;;;43.92;28.17;;;-1.30;99.90;;;;;;5078741;28;20199;-53
2021/12/09 06:02:15;;;;;;;55.25;26.70;;;-1.40;99.90;;;;;;5079350;28;20223;-55
2021/12/09 06:04:44;;;;;;;53.80;27.77;;;-1.30;99.90;;;;;;5079493;28;20201;-50
2021/12/09 06:07:11;;;;;;;53.85;30.67;;;-1.40;99.90;;;;;;5079161;28;20195;-52
2021/12/09 06:09:39;;;;;;;47.47;28.58;;;-1.30;99.90;;;;;;5079390;28;20253;-51
2021/12/09 06:12:07;;;;;;;43.55;25.42;;;-1.20;99.90;;;;;;5071070;28;20235;-54
2021/12/09 06:14:34;;;;;;;63.45;28.35;;;-1.30;99.90;;;;;;5070216;28;20556;-52
2021/12/09 06:17:01;;;;;;;52.85;28.95;;;-1.20;99.90;;;;;;5079521;28;20240;-53
2021/12/09 06:19:29;;;;;;;42.85;25.30;;;-1.20;99.90;;;;;;5079639;28;20187;-52
2021/12/09 06:21:56;;;;;;;51.95;30.50;;;-1.20;99.90;;;;;;5083950;28;20437;-50
2021/12/09 06:24:24;;;;;;;44.53;27.33;;;-1.20;99.90;;;;;;5083503;28;20199;-52
2021/12/09 06:26:52;;;;;;;51.83;28.40;;;-1.20;99.90;;;;;;5083082;28;20256;-52
2021/12/09 06:29:19;;;;;;;44.65;25.70;;;-1.20;99.90;;;;;;5082810;28;20202;-50
2021/12/09 06:31:47;;;;;;;54.15;27.75;;;-1.20;99.90;;;;;;5082819;28;20233;-52
2021/12/09 06:34:14;;;;;;;55.72;28.55;;;-1.20;99.90;;;;;;5073473;28;20227;-51
2021/12/09 06:36:42;;;;;;;53.70;27.13;;;-1.20;99.90;;;;;;5074548;28;20203;-54
2021/12/09 06:39:10;;;;;;;56.78;28.88;;;-1.20;99.90;;;;;;5082228;28;20198;-54
2021/12/09 06:41:37;;;;;;;41.47;26.33;;;-1.20;99.90;;;;;;5082432;28;20223;-52
2021/12/09 06:44:06;;;;;;;51.28;27.75;;;-1.20;99.90;;;;;;5082795;28;20195;-52
2021/12/09 06:46:33;;;;;;;44.67;26.05;;;-1.10;99.90;;;;;;5081516;28;20187;-50
2021/12/09 06:49:01;;;;;;;42.35;27.65;;;-1.20;99.90;;;;;;5082199;28;20195;-55
2021/12/09 06:51:28;;;;;;;52.95;29.38;;;-1.10;99.90;;;;;;5081532;28;20227;-54
2021/12/09 06:53:57;;;;;;;47.00;28.25;;;-1.10;99.90;;;;;;5080263;28;20245;-51
2021/12/09 06:56:27;;;;;;;53.67;28.42;;;-1.00;99.90;;;;;;5053320;28;20426;-52
2021/12/09 06:58:55;;;;;;;52.35;29.73;;;-1.10;99.90;;;;;;5082012;28;20203;-50
2021/12/09 07:01:22;;;;;;;51.75;29.40;;;-1.10;99.90;;;;;;5081663;28;20268;-52
2021/12/09 07:03:51;;;;;;;48.40;28.60;;;-1.10;99.90;;;;;;5081999;28;20195;-54
2021/12/09 07:06:19;;;;;;;58.65;28.00;;;-1.00;99.90;;;;;;5081743;28;20203;-55
2021/12/09 07:08:49;;;;;;;48.30;28.13;;;-0.90;99.90;;;;;;5080788;28;20211;-51
2021/12/09 07:11:20;;;;;;;48.85;29.05;;;-0.90;99.90;;;;;;5081562;28;20229;-55
2021/12/09 07:13:48;;;;;;;45.97;26.38;;;-0.90;99.90;;;;;;5081823;28;20206;-55
2021/12/09 07:16:16;;;;;;;50.13;29.02;;;-0.80;99.90;;;;;;5082172;28;20195;-53
2021/12/09 07:18:44;;;;;;;45.90;27.35;;;-0.80;99.90;;;;;;5081823;28;20203;-55
2021/12/09 07:21:11;;;;;;;53.03;28.88;;;-0.70;99.90;;;;;;5085530;28;20218;-57
2021/12/09 07:23:38;;;;;;;46.65;26.88;;;-0.70;99.90;;;;;;5088254;28;20260;-51
2021/12/09 07:26:06;;;;;;;54.28;28.30;;;-0.70;99.90;;;;;;5081855;28;20195;-53
2021/12/09 07:28:33;;;;;;;51.72;27.92;;;-0.70;99.90;;;;;;5082294;28;20202;-55
2021/12/09 07:31:02;;;;;;;52.42;26.65;;;-0.70;99.90;;;;;;5081275;28;20222;-54
2021/12/09 07:33:29;;;;;;;53.40;29.50;;;-0.70;99.90;;;;;;5081123;28;20378;-50
2021/12/09 07:35:56;;;;;;;43.20;24.80;;;-0.80;99.90;;;;;;5081153;28;20248;-51
2021/12/09 07:38:23;;;;;;;49.97;29.75;;;-0.70;99.90;;;;;;5076208;28;20191;-52
2021/12/09 07:40:51;;;;;;;52.45;29.95;;;-0.80;99.90;;;;;;5073125;28;20217;-51
2021/12/09 07:43:19;;;;;;;48.13;28.98;;;-0.70;99.90;;;;;;5063626;28;20202;-51
2021/12/09 07:45:47;;;;;;;46.33;26.52;;;-0.70;99.90;;;;;;5080839;28;20203;-51
2021/12/09 07:48:14;;;;;;;47.97;28.25;;;-0.80;99.90;;;;;;5080789;28;20276;-50
2021/12/09 07:50:41;;;;;;;52.10;28.17;;;-0.70;99.90;;;;;;5081232;28;20560;-52
2021/12/09 07:53:08;;;;;;;51.10;27.27;;;-0.70;99.90;;;;;;5080716;28;20205;-56
2021/12/09 07:55:37;;;;;;;54.25;30.77;;;-0.70;99.90;;;;;;5081161;28;20203;-52
2021/12/09 07:58:04;;;;;;;46.33;27.50;;;-0.70;99.90;;;;;;5080927;28;20493;-50
2021/12/09 08:00:33;;;;;;;44.00;27.38;;;-0.70;99.90;;;;;;5080457;28;20203;-53
2021/12/09 08:03:02;;;;;;;49.13;29.63;;;-0.70;99.90;;;;;;5080537;28;20302;-53
2021/12/09 08:05:32;;;;;;;56.05;30.58;;;-0.70;99.90;;;;;;5080399;28;20240;-51
2021/12/09 08:07:59;;;;;;;49.20;28.77;;;-0.70;99.90;;;;;;5080820;28;20470;-55
2021/12/09 08:10:27;;;;;;;49.53;26.80;;;-0.70;99.90;;;;;;5080331;28;20202;-51
2021/12/09 08:12:55;;;;;;;55.70;28.55;;;-0.70;99.90;;;;;;5080894;28;20214;-50
2021/12/09 08:15:35;;;;;;;49.13;29.45;;;-0.70;99.90;;;;;;5079837;28;20207;-52
2021/12/09 08:20:49;;;;;;;60.65;30.05;;;-0.60;99.90;;;;;;5079664;28;20592;-53
2021/12/09 08:23:16;;;;;;;51.17;30.83;;;-0.50;99.90;;;;;;5080366;28;20421;-52
2021/12/09 08:25:45;;;;;;;49.05;30.95;;;-0.40;99.90;;;;;;5078085;28;20233;-52
2021/12/09 08:28:13;;;;;;;54.30;31.73;;;-0.40;99.90;;;;;;5064284;28;20199;-53
2021/12/09 08:30:40;;;;;;;53.83;29.63;;;-0.30;99.90;;;;;;5059802;28;20207;-54
2021/12/09 08:33:21;;;;;;;53.90;30.90;;;-0.20;99.90;;;;;;5060057;28;20199;-52
2021/12/09 08:35:49;;;;;;;59.33;31.88;;;-0.20;99.90;;;;;;5060326;28;20433;-50
2021/12/09 08:38:16;;;;;;;45.72;28.17;;;-0.20;99.90;;;;;;5060079;28;20200;-52
2021/12/09 08:40:46;;;;;;;51.20;30.23;;;-0.30;99.90;;;;;;5060530;28;20506;-51
2021/12/09 08:43:14;;;;;;;49.78;30.95;;;-0.20;99.90;;;;;;5060134;28;20206;-55
2021/12/09 08:45:42;;;;;;;54.95;33.05;;;-0.20;99.90;;;;;;5060853;28;20262;-55
2021/12/09 08:48:10;;;;;;;52.30;29.63;;;-0.20;99.90;;;;;;5060626;28;20199;-51
2021/12/09 08:50:38;;;;;;;44.60;28.88;;;-0.20;99.90;;;;;;5059536;28;20199;-50
2021/12/09 08:53:09;;;;;;;56.20;30.55;;;-0.30;99.90;;;;;;5060676;28;20203;-53
2021/12/09 08:55:37;;;;;;;53.40;32.53;;;-0.30;99.90;;;;;;5059728;28;20399;-51
2021/12/09 08:58:05;;;;;;;51.30;30.13;;;-0.20;99.90;;;;;;5060341;28;20241;-49
2021/12/09 09:00:33;;;;;;;48.28;25.85;;;-0.10;99.90;;;;;;5059435;28;20238;-53
2021/12/09 09:03:03;;;;;;;67.22;31.05;;;-0.10;99.90;;;;;;5060247;28;20560;-52
2021/12/09 09:05:32;;;;;;;56.78;29.02;;;-0.20;99.90;;;;;;5059947;28;20261;-50
2021/12/09 09:08:01;;;;;;;60.88;31.23;;;-0.10;99.90;;;;;;5060729;28;20202;-51
2021/12/09 09:10:30;;;;;;;49.50;29.05;;;0.00;99.90;;;;;;5060167;28;20535;-53
2021/12/09 09:12:57;;;;;;;51.80;31.42;;;0.00;99.90;;;;;;5060076;28;20207;-50
2021/12/09 09:15:26;;;;;;;58.03;29.92;;;0.10;99.90;;;;;;5073754;28;20210;-53
2021/12/09 09:17:54;;;;;;;53.78;26.50;;;0.10;99.90;;;;;;5076509;28;20299;-49
2021/12/09 09:20:24;;;;;;;50.28;28.83;;;0.00;99.90;;;;;;5060148;28;20327;-50
2021/12/09 09:22:52;;;;;;;56.65;32.70;;;-0.10;99.90;;;;;;5059355;28;20219;-51
2021/12/09 09:25:24;;;;;;;61.63;30.77;;;-0.10;99.90;;;;;;5059952;28;20250;-51
2021/12/09 09:27:52;;;;;;;45.80;28.25;;;0.00;99.90;;;;;;5059955;28;20199;-49
2021/12/09 09:30:19;;;;;;;50.13;25.30;;;0.00;99.90;;;;;;5059773;28;20375;-54
2021/12/09 09:32:49;;;;;;;51.20;29.88;;;0.00;99.90;;;;;;5060569;28;20254;-52
2021/12/09 09:35:19;;;;;;;44.90;29.05;;;-0.10;99.90;;;;;;5062729;28;20199;-53
2021/12/09 09:37:47;;;;;;;48.63;29.00;;;0.00;99.90;;;;;;5060459;28;20199;-49
2021/12/09 09:40:17;;;;;;;49.67;30.33;;;0.00;99.90;;;;;;5058942;28;20199;-53
2021/12/09 09:42:58;;;;;;;48.05;29.58;;;0.20;99.90;;;;;;5059297;28;20264;-51
2021/12/09 09:45:25;;;;;;;52.50;33.20;;;0.30;99.90;;;;;;5058637;28;20223;-49
2021/12/09 09:47:54;;;;;;;55.78;30.40;;;0.50;99.90;;;;;;5059504;28;20195;-54
2021/12/09 09:50:21;;;;;;;52.55;28.80;;;0.60;99.90;;;;;;5059116;28;20195;-52
2021/12/09 09:52:48;;;;;;;61.78;31.75;;;0.60;99.90;;;;;;5059339;28;20219;-54
2021/12/09 09:55:21;;;;;;;56.30;32.35;;;0.60;99.90;;;;;;5077124;28;20203;-50
2021/12/09 09:57:49;;;;;;;48.63;31.65;;;0.60;99.90;;;;;;5062797;28;20206;-52
2021/12/09 10:00:20;;;;;;;50.50;28.80;;;0.70;99.90;;;;;;5062611;28;20203;-54
2021/12/09 10:02:52;;;;;;;62.13;30.20;;;0.60;99.90;;;;;;5063270;28;20224;-51
2021/12/09 10:05:33;;;;;;;49.78;31.27;;;0.60;99.90;;;;;;5063813;28;20196;-51
2021/12/09 10:08:00;;;;;;;54.42;29.20;;;0.60;99.90;;;;;;5063881;28;20278;-49
2021/12/09 10:10:27;;;;;;;53.95;30.50;;;0.80;99.90;;;;;;5063764;28;20211;-54
2021/12/09 10:12:57;;;;;;;52.38;30.60;;;0.80;99.90;;;;;;5063823;28;20227;-51
2021/12/09 10:15:47;;;;;;;57.00;34.20;;;0.70;99.90;;;;;;5062734;28;20199;-51
2021/12/09 10:18:35;;;;;;;54.08;32.75;;;0.50;99.90;;;;;;5063673;28;20200;-54
2021/12/09 10:21:05;;;;;;;52.15;31.27;;;0.80;99.90;;;;;;5062884;28;20281;-55
2021/12/09 10:23:42;;;;;;;56.47;32.83;;;1.00;99.90;;;;;;5063402;28;20215;-53
2021/12/09 10:26:21;;;;;;;52.25;32.38;;;1.10;99.90;;;;;;5075927;28;20507;-53
2021/12/09 10:28:52;;;;;;;49.65;29.17;;;1.40;99.90;;;;;;5079884;28;20201;-51
2021/12/09 10:31:24;;;;;;;52.00;30.98;;;1.50;99.90;;;;;;5081448;28;20223;-52
2021/12/09 10:34:07;;;;;;;48.65;28.98;;;1.30;99.90;;;;;;5080250;28;20277;-54
2021/12/09 10:37:03;;;;;;;52.03;28.42;;;1.00;99.90;;;;;;5081792;28;20445;-52
2021/12/09 10:39:36;;;;;;;48.85;28.15;;;0.80;99.90;;;;;;5081356;28;20207;-52
2021/12/09 10:42:10;;;;;;;46.38;29.85;;;0.70;99.90;;;;;;5081550;28;20424;-53
2021/12/09 10:44:44;;;;;;;45.78;29.33;;;0.70;99.90;;;;;;5081511;28;20437;-54
2021/12/09 10:47:21;;;;;;;48.85;29.73;;;0.90;99.90;;;;;;5081046;28;20202;-53
2021/12/09 10:50:04;;;;;;;58.45;33.97;;;1.20;99.90;;;;;;5075534;28;20202;-51
2021/12/09 10:52:41;;;;;;;47.95;29.88;;;1.00;99.90;;;;;;5073763;28;20245;-52
2021/12/09 10:55:16;;;;;;;50.10;27.80;;;0.80;99.90;;;;;;5067110;28;20382;-50
2021/12/09 10:57:45;;;;;;;52.08;30.58;;;0.90;99.90;;;;;;5043727;28;20234;-54
2021/12/09 11:00:21;;;;;;;59.38;34.33;;;0.90;99.90;;;;;;5061830;28;20271;-52
2021/12/09 11:03:02;;;;;;;51.55;30.85;;;1.20;99.90;;;;;;5061965;28;20227;-53
2021/12/09 11:05:31;;;;;;;51.38;31.38;;;1.50;99.90;;;;;;5061384;28;20215;-55
2021/12/09 11:08:22;;;;;;;48.40;28.33;;;1.60;99.90;;;;;;5061995;28;20196;-53
2021/12/09 11:11:00;;;;;;;47.88;29.60;;;1.50;99.90;;;;;;5061514;28;20192;-51
2021/12/09 11:13:41;;;;;;;52.55;30.30;;;1.60;99.90;;;;;;5062153;28;20278;-57
2021/12/09 11:16:08;;;;;;;55.30;34.35;;;1.50;99.90;;;;;;5061495;28;20210;-52
2021/12/09 11:18:42;;;;;;;55.72;32.50;;;1.40;99.90;;;;;;5061775;28;20200;-56
2021/12/09 11:21:22;;;;;;;53.45;30.65;;;1.10;99.90;;;;;;5061293;28;20306;-53
2021/12/09 11:23:56;;;;;;;51.95;29.80;;;1.00;99.90;;;;;;5062265;28;20536;-54
2021/12/09 11:26:39;;;;;;;57.78;31.83;;;0.90;99.90;;;;;;5061649;28;20204;-53
2021/12/09 11:29:10;;;;;;;63.13;31.85;;;0.90;99.90;;;;;;5062317;28;20494;-54
2021/12/09 11:31:53;;;;;;;57.67;31.38;;;0.80;99.90;;;;;;5061810;28;20238;-56
2021/12/09 11:34:26;;;;;;;55.15;29.90;;;0.80;99.90;;;;;;5062507;28;20195;-55
2021/12/09 11:37:01;;;;;;;60.38;35.60;;;0.80;99.90;;;;;;5061812;28;20192;-53
2021/12/09 11:39:33;;;;;;;49.10;28.10;;;0.80;99.90;;;;;;5061034;28;20458;-51
2021/12/09 11:42:39;;;;;;;54.78;31.27;;;0.70;99.90;;;;;;5061208;28;20215;-55
2021/12/09 11:45:09;;;;;;;41.75;26.63;;;0.80;99.90;;;;;;5050515;28;20506;-56
2021/12/09 11:47:42;;;;;;;48.90;28.25;;;0.80;99.90;;;;;;5060953;28;20196;-54
2021/12/09 11:50:17;;;;;;;47.28;26.88;;;0.70;99.90;;;;;;5061240;28;20597;-53
2021/12/09 11:52:45;;;;;;;47.50;26.83;;;0.60;99.90;;;;;;5061482;28;20223;-52
2021/12/09 11:55:17;;;;;;;42.17;25.17;;;0.50;99.90;;;;;;5060355;28;20215;-54
2021/12/09 11:57:52;;;;;;;46.72;26.45;;;0.50;99.90;;;;;;5061520;28;20200;-51
2021/12/09 12:12:28;;;;;;;53.03;30.67;;;0.50;99.90;;;;;;5079008;28;20269;-56
2021/12/09 12:15:16;;;;;;;48.90;29.10;;;0.50;99.90;;;;;;5079838;28;20213;-52
2021/12/09 12:21:38;;;;;;;52.65;27.75;;;0.50;99.90;;;;;;5070299;28;20294;-53
2021/12/09 12:32:43;;;;;;;45.67;26.92;;;1.00;99.90;;;;;;5079836;28;20283;-53
2021/12/09 12:40:32;;;;;;;49.42;30.15;;;0.80;99.90;;;;;;5072703;28;20203;-55
2021/12/09 12:43:05;;;;;;;55.75;30.23;;;0.80;99.90;;;;;;5061796;28;20237;-51
2021/12/09 12:45:53;;;;;;;56.45;28.23;;;0.80;99.90;;;;;;5080108;28;20195;-56
2021/12/09 12:48:52;;;;;;;49.30;27.98;;;0.70;99.90;;;;;;5080319;28;20293;-53
2021/12/09 12:51:48;;;;;;;48.55;26.58;;;0.80;99.90;;;;;;5079583;28;20272;-55
2021/12/09 12:54:26;;;;;;;39.13;27.02;;;0.70;99.90;;;;;;5084023;28;20199;-58
2021/12/09 12:56:57;;;;;;;52.25;28.25;;;0.80;99.90;;;;;;5080796;28;20199;-54
2021/12/09 12:59:33;;;;;;;50.92;28.95;;;0.90;99.90;;;;;;5081449;28;20199;-50
2021/12/09 13:02:01;;;;;;;49.95;26.02;;;0.90;99.90;;;;;;5079629;28;20279;-56
2021/12/09 13:10:47;;;;;;;57.55;28.20;;;1.10;99.90;;;;;;5073567;28;20210;-55
2021/12/09 13:13:36;;;;;;;58.60;33.15;;;0.90;99.90;;;;;;5061128;28;20261;-50
2021/12/09 13:16:22;;;;;;;47.20;29.50;;;0.90;99.90;;;;;;5067658;28;20229;-52
2021/12/09 13:19:59;;;;;;;53.05;31.38;;;0.90;99.90;;;;;;5080818;28;20233;-53
2021/12/09 13:22:09;;;;;;;53.10;29.75;;;0.80;99.90;;;;;;5071953;28;20215;-57
2021/12/09 13:27:43;;;;;;;54.92;30.63;;;1.20;99.90;;;;;;5079616;28;20206;-55
2021/12/09 13:47:46;;;;;;;58.70;32.65;;;0.80;99.90;;;;;;5083753;28;20233;-58
2021/12/09 13:50:43;;;;;;;57.63;30.75;;;0.70;99.90;;;;;;5082604;28;20537;-53